createdAt,value
2022-08-21T00:00:44.576Z,23.90
2022-08-21T00:03:14.218Z,23.90
2022-08-21T00:05:52.787Z,24.00
2022-08-21T00:08:22.987Z,24.10
2022-08-21T00:10:51.734Z,24.20
2022-08-21T00:13:21.927Z,24.20
2022-08-21T00:15:51.678Z,24.10
2022-08-21T00:18:21.484Z,24.00
2022-08-21T00:20:50.245Z,23.90
2022-08-21T00:23:19.604Z,23.80
2022-08-21T00:25:49.507Z,23.70
2022-08-21T00:28:18.212Z,24.00
2022-08-21T00:30:46.556Z,24.20
2022-08-21T00:33:15.482Z,24.30
2022-08-21T00:35:45.311Z,24.20
2022-08-21T00:38:14.156Z,23.90
2022-08-21T00:40:45.720Z,24.00
2022-08-21T00:43:20.635Z,24.10
2022-08-21T00:45:49.859Z,24.00
2022-08-21T00:48:18.463Z,23.90
2022-08-21T00:51:00.635Z,24.00
2022-08-21T00:53:31.760Z,24.00
2022-08-21T00:56:03.312Z,24.10
2022-08-21T00:58:36.896Z,24.10
2022-08-21T01:01:08.998Z,24.10
2022-08-21T01:03:38.835Z,24.10
2022-08-21T01:06:12.922Z,24.00
2022-08-21T01:08:46.802Z,24.00
2022-08-21T01:11:16.379Z,24.10
2022-08-21T01:13:47.640Z,24.00
2022-08-21T01:16:20.867Z,23.90
2022-08-21T01:18:49.671Z,23.90
2022-08-21T01:21:23.089Z,23.90
2022-08-21T01:23:58.988Z,23.90
2022-08-21T01:26:34.329Z,23.80
2022-08-21T01:29:12.145Z,23.70
2022-08-21T01:31:41.739Z,23.60
2022-08-21T01:34:10.773Z,23.70
2022-08-21T01:36:40.960Z,23.70
2022-08-21T01:39:10.239Z,23.10
2022-08-21T01:41:38.577Z,23.10
2022-08-21T01:44:07.241Z,22.90
2022-08-21T01:46:35.681Z,22.90
2022-08-21T01:49:05.686Z,23.10
2022-08-21T01:51:34.558Z,22.90
2022-08-21T01:54:04.840Z,23.00
2022-08-21T01:56:40.374Z,23.40
2022-08-21T01:59:09.902Z,23.50
2022-08-21T02:01:40.428Z,23.50
2022-08-21T02:04:10.030Z,23.60
2022-08-21T02:06:38.726Z,23.70
2022-08-21T02:09:11.945Z,23.70
2022-08-21T02:11:41.653Z,23.70
2022-08-21T02:14:10.220Z,23.70
2022-08-21T02:16:39.000Z,23.70
2022-08-21T02:19:08.386Z,23.70
2022-08-21T02:21:36.780Z,23.50
2022-08-21T02:24:07.917Z,23.50
2022-08-21T02:26:36.664Z,23.60
2022-08-21T02:29:06.164Z,23.70
2022-08-21T02:31:34.761Z,23.70
2022-08-21T02:34:03.537Z,23.70
2022-08-21T02:36:32.825Z,23.50
2022-08-21T02:39:01.226Z,23.50
2022-08-21T02:41:31.015Z,23.60
2022-08-21T02:43:59.342Z,23.50
2022-08-21T02:46:28.091Z,23.60
2022-08-21T02:48:56.409Z,23.50
2022-08-21T02:51:26.059Z,23.50
2022-08-21T02:53:55.448Z,23.30
2022-08-21T02:56:24.144Z,23.20
2022-08-21T02:58:57.674Z,23.10
2022-08-21T03:01:26.298Z,23.10
2022-08-21T03:03:54.673Z,23.10
2022-08-21T03:06:25.615Z,23.20
2022-08-21T03:08:53.995Z,23.30
2022-08-21T03:11:22.568Z,23.30
2022-08-21T03:13:50.859Z,23.10
2022-08-21T03:16:21.722Z,23.20
2022-08-21T03:18:50.134Z,23.20
2022-08-21T03:21:20.016Z,23.30
2022-08-21T03:23:48.395Z,23.30
2022-08-21T03:26:16.774Z,23.30
2022-08-21T03:28:45.531Z,23.20
2022-08-21T03:31:13.851Z,23.20
2022-08-21T03:33:43.506Z,22.90
2022-08-21T03:36:12.807Z,22.90
2022-08-21T03:38:41.370Z,22.90
2022-08-21T03:41:10.344Z,21.80
2022-08-21T03:43:39.588Z,21.80
2022-08-21T03:46:08.972Z,22.30
2022-08-21T03:48:39.259Z,22.60
2022-08-21T03:51:09.571Z,22.50
2022-08-21T03:53:38.479Z,21.90
2022-08-21T03:56:08.323Z,22.00
2022-08-21T03:58:36.943Z,22.00
2022-08-21T04:01:07.286Z,22.10
2022-08-21T04:03:38.131Z,22.40
2022-08-21T04:06:09.456Z,22.50
2022-08-21T04:08:37.808Z,22.70
2022-08-21T04:11:07.654Z,22.80
2022-08-21T04:13:36.280Z,22.80
2022-08-21T04:16:13.123Z,22.60
2022-08-21T04:18:41.680Z,22.60
2022-08-21T04:21:13.601Z,22.70
2022-08-21T04:23:42.459Z,22.80
2022-08-21T04:26:10.864Z,22.50
2022-08-21T04:28:39.209Z,22.70
2022-08-21T04:31:07.726Z,22.80
2022-08-21T04:33:36.267Z,22.80
2022-08-21T04:36:05.476Z,22.30
2022-08-21T04:38:37.547Z,22.40
2022-08-21T04:41:07.403Z,22.50
2022-08-21T04:43:35.992Z,22.70
2022-08-21T04:46:04.470Z,22.70
2022-08-21T04:48:33.937Z,22.80
2022-08-21T04:51:07.837Z,22.80
2022-08-21T04:53:41.601Z,22.80
2022-08-21T04:56:14.177Z,22.50
2022-08-21T04:58:44.003Z,22.60
2022-08-21T05:01:21.066Z,22.20
2022-08-21T05:03:53.699Z,22.00
2022-08-21T05:06:23.258Z,22.00
2022-08-21T05:09:01.946Z,22.20
2022-08-21T05:11:32.326Z,22.30
2022-08-21T05:14:00.920Z,22.10
2022-08-21T05:16:30.274Z,21.90
2022-08-21T05:19:06.593Z,21.80
2022-08-21T05:21:36.294Z,22.10
2022-08-21T05:24:06.469Z,21.80
2022-08-21T05:26:43.752Z,22.70
2022-08-21T05:29:16.339Z,22.90
2022-08-21T05:31:44.991Z,23.00
2022-08-21T05:34:13.392Z,22.70
2022-08-21T05:36:44.639Z,21.60
2022-08-21T05:39:14.704Z,21.50
2022-08-21T05:41:43.022Z,21.60
2022-08-21T05:44:11.420Z,22.10
2022-08-21T05:46:40.213Z,22.00
2022-08-21T05:49:08.549Z,22.30
2022-08-21T05:51:37.203Z,22.20
2022-08-21T05:54:05.958Z,22.60
2022-08-21T05:56:35.972Z,22.80
2022-08-21T05:59:08.668Z,23.00
2022-08-21T06:01:37.494Z,22.70
2022-08-21T06:04:06.485Z,21.10
2022-08-21T06:06:34.906Z,20.30
2022-08-21T06:09:03.780Z,20.60
2022-08-21T06:11:35.936Z,21.20
2022-08-21T06:14:05.214Z,20.60
2022-08-21T06:16:33.511Z,20.90
2022-08-21T06:19:03.131Z,21.60
2022-08-21T06:21:31.719Z,23.00
2022-08-21T06:24:01.868Z,21.80
2022-08-21T06:26:30.422Z,22.70
2022-08-21T06:29:01.518Z,21.50
2022-08-21T06:31:30.640Z,22.10
2022-08-21T06:33:59.322Z,23.10
2022-08-21T06:36:27.911Z,20.90
2022-08-21T06:38:57.135Z,22.40
2022-08-21T06:41:27.123Z,22.30
2022-08-21T06:43:57.219Z,22.60
2022-08-21T06:46:29.065Z,24.30
2022-08-21T06:48:58.511Z,24.40
2022-08-21T06:51:27.547Z,24.60
2022-08-21T06:53:56.636Z,24.80
2022-08-21T06:56:27.755Z,24.90
2022-08-21T06:58:56.045Z,22.20
2022-08-21T07:01:29.296Z,23.30
2022-08-21T07:03:57.819Z,24.50
2022-08-21T07:06:27.007Z,23.20
2022-08-21T07:08:55.690Z,23.50
2022-08-21T07:11:27.524Z,23.00
2022-08-21T07:13:57.485Z,21.80
2022-08-21T07:16:27.687Z,22.70
2022-08-21T07:18:56.066Z,23.90
2022-08-21T07:21:26.189Z,24.20
2022-08-21T07:23:55.593Z,22.40
2022-08-21T07:26:26.949Z,23.00
2022-08-21T07:28:56.130Z,23.80
2022-08-21T07:31:28.195Z,21.90
2022-08-21T07:33:57.115Z,21.90
2022-08-21T07:36:25.823Z,22.20
2022-08-21T07:38:54.203Z,21.70
2022-08-21T07:41:25.665Z,22.00
2022-08-21T07:43:54.707Z,23.50
2022-08-21T07:46:23.286Z,24.00
2022-08-21T07:48:53.649Z,23.80
2022-08-21T07:51:27.874Z,23.40
2022-08-21T07:53:58.817Z,24.50
2022-08-21T07:56:27.614Z,22.40
2022-08-21T07:58:58.385Z,22.50
2022-08-21T08:01:27.297Z,23.80
2022-08-21T08:03:57.277Z,24.20
2022-08-21T08:06:27.050Z,24.30
2022-08-21T08:08:55.360Z,24.40
2022-08-21T08:11:23.822Z,24.20
2022-08-21T08:13:54.591Z,25.30
2022-08-21T08:16:22.895Z,25.40
2022-08-21T08:18:52.429Z,25.50
2022-08-21T08:21:22.177Z,24.00
2022-08-21T08:23:50.932Z,24.00
2022-08-21T08:26:19.678Z,23.90
2022-08-21T08:28:48.698Z,24.80
2022-08-21T08:31:17.062Z,23.90
2022-08-21T08:33:45.495Z,24.00
2022-08-21T08:36:20.020Z,25.00
2022-08-21T08:38:50.405Z,24.20
2022-08-21T08:41:23.837Z,24.60
2022-08-21T08:44:06.213Z,24.00
2022-08-21T08:46:46.212Z,24.90
2022-08-21T08:49:22.534Z,25.70
2022-08-21T08:51:57.415Z,25.40
2022-08-21T08:54:34.013Z,25.30
2022-08-21T08:57:03.776Z,24.40
2022-08-21T08:59:43.755Z,24.30
2022-08-21T09:02:14.728Z,24.40
2022-08-21T09:04:44.129Z,25.70
2022-08-21T09:07:22.030Z,26.40
2022-08-21T09:10:13.082Z,26.20
2022-08-21T09:12:53.853Z,26.20
2022-08-21T09:15:34.051Z,26.00
2022-08-21T09:18:18.086Z,25.70
2022-08-21T09:21:04.947Z,24.30
2022-08-21T09:23:45.849Z,25.00
2022-08-21T09:26:19.283Z,23.80
2022-08-21T09:28:51.970Z,24.90
2022-08-21T09:31:26.204Z,25.70
2022-08-21T09:34:01.072Z,26.40
2022-08-21T09:36:39.875Z,25.80
2022-08-21T09:39:10.671Z,26.10
2022-08-21T09:41:41.710Z,26.20
2022-08-21T09:44:11.140Z,26.80
2022-08-21T09:46:39.485Z,25.10
2022-08-21T09:49:13.529Z,25.40
2022-08-21T09:51:55.254Z,26.10
2022-08-21T09:54:32.096Z,26.70
2022-08-21T09:57:50.248Z,25.90
2022-08-21T10:00:27.945Z,26.60
2022-08-21T10:02:56.435Z,25.70
2022-08-21T10:05:29.337Z,25.50
2022-08-21T10:07:57.681Z,25.40
2022-08-21T10:10:31.723Z,25.00
2022-08-21T10:13:15.388Z,26.00
2022-08-21T10:16:03.072Z,25.60
2022-08-21T10:18:41.117Z,25.80
2022-08-21T10:21:20.437Z,25.60
2022-08-21T10:24:05.114Z,26.20
2022-08-21T10:26:47.054Z,25.90
2022-08-21T10:29:37.339Z,26.20
2022-08-21T10:32:26.841Z,25.60
2022-08-21T10:35:10.119Z,25.70
2022-08-21T10:37:54.220Z,25.90
2022-08-21T10:40:29.403Z,26.80
2022-08-21T10:43:18.828Z,26.20
2022-08-21T10:45:59.987Z,26.10
2022-08-21T10:48:36.433Z,25.40
2022-08-21T10:51:16.022Z,25.10
2022-08-21T10:54:01.871Z,25.50
2022-08-21T10:56:33.620Z,25.60
2022-08-21T10:59:20.871Z,25.90
2022-08-21T11:01:59.237Z,25.20
2022-08-21T11:04:48.919Z,25.00
2022-08-21T11:07:27.050Z,25.70
2022-08-21T11:10:09.706Z,26.80
2022-08-21T11:12:45.396Z,25.90
2022-08-21T11:15:37.498Z,26.60
2022-08-21T11:18:24.090Z,26.70
2022-08-21T11:21:03.394Z,25.40
2022-08-21T11:23:41.954Z,26.20
2022-08-21T11:26:16.850Z,26.50
2022-08-21T11:28:54.184Z,24.90
2022-08-21T11:31:42.844Z,25.60
2022-08-21T11:34:32.500Z,26.70
2022-08-21T11:37:11.846Z,26.30
2022-08-21T11:39:52.867Z,25.80
2022-08-21T11:42:31.913Z,25.40
2022-08-21T11:45:16.577Z,26.30
2022-08-21T11:48:01.351Z,27.70
2022-08-21T11:50:36.012Z,27.80
2022-08-21T11:53:12.519Z,28.30
2022-08-21T11:55:47.945Z,28.20
2022-08-21T11:58:23.190Z,27.30
2022-08-21T12:00:57.290Z,27.60
2022-08-21T12:03:32.192Z,28.00
2022-08-21T12:06:07.736Z,27.80
2022-08-21T12:08:38.466Z,26.90
2022-08-21T12:11:10.596Z,27.30
2022-08-21T12:13:43.143Z,28.00
2022-08-21T12:16:15.576Z,27.10
2022-08-21T12:18:45.252Z,27.90
2022-08-21T12:21:26.257Z,27.70
2022-08-21T12:24:07.569Z,27.30
2022-08-21T12:26:49.685Z,26.90
2022-08-21T12:29:25.795Z,27.10
2022-08-21T12:32:00.333Z,27.10
2022-08-21T12:34:37.932Z,27.10
2022-08-21T12:37:26.943Z,26.30
2022-08-21T12:39:59.718Z,27.30
2022-08-21T12:42:37.215Z,28.10
2022-08-21T12:45:16.698Z,28.30
2022-08-21T12:47:52.793Z,28.50
2022-08-21T12:50:28.471Z,28.40
2022-08-21T12:53:06.810Z,28.60
2022-08-21T12:55:49.488Z,28.50
2022-08-21T12:58:22.872Z,27.90
2022-08-21T13:00:56.655Z,27.70
2022-08-21T13:03:25.892Z,25.90
2022-08-21T13:05:55.302Z,27.10
2022-08-21T13:08:28.035Z,27.30
2022-08-21T13:11:15.021Z,27.80
2022-08-21T13:13:50.222Z,27.50
2022-08-21T13:16:26.524Z,28.10
2022-08-21T13:18:59.723Z,28.00
2022-08-21T13:21:33.811Z,28.50
2022-08-21T13:24:41.948Z,28.40
2022-08-21T13:27:28.946Z,28.60
2022-08-21T13:30:12.280Z,28.90
2022-08-21T13:32:45.659Z,28.70
2022-08-21T13:35:21.128Z,28.70
2022-08-21T13:37:52.971Z,28.10
2022-08-21T13:40:29.849Z,27.10
2022-08-21T13:42:59.394Z,27.80
2022-08-21T13:45:33.463Z,27.90
2022-08-21T13:48:06.340Z,28.20
2022-08-21T13:50:44.646Z,27.60
2022-08-21T13:53:24.981Z,28.20
2022-08-21T13:55:59.940Z,28.10
2022-08-21T13:58:31.373Z,28.50
2022-08-21T14:01:06.436Z,28.20
2022-08-21T14:03:40.955Z,28.60
2022-08-21T14:06:16.807Z,28.30
2022-08-21T14:08:52.157Z,28.30
2022-08-21T14:11:22.487Z,28.20
2022-08-21T14:13:58.903Z,28.50
2022-08-21T14:16:30.688Z,28.20
2022-08-21T14:19:13.103Z,27.70
2022-08-21T14:21:45.129Z,28.20
2022-08-21T14:24:26.514Z,28.20
2022-08-21T14:26:59.460Z,28.50
2022-08-21T14:29:33.058Z,28.70
2022-08-21T14:32:21.496Z,28.20
2022-08-21T14:34:52.924Z,28.80
2022-08-21T14:37:23.475Z,28.70
2022-08-21T14:39:52.019Z,28.50
2022-08-21T14:42:22.418Z,28.80
2022-08-21T14:44:50.858Z,28.90
2022-08-21T14:47:19.314Z,28.80
2022-08-21T14:49:47.696Z,28.60
2022-08-21T14:52:16.135Z,28.40
2022-08-21T14:54:44.491Z,28.60
2022-08-21T14:57:14.471Z,28.60
2022-08-21T14:59:44.555Z,28.60
2022-08-21T15:02:13.508Z,28.20
2022-08-21T15:04:42.815Z,28.10
2022-08-21T15:07:11.139Z,28.80
2022-08-21T15:09:39.693Z,28.70
2022-08-21T15:12:09.477Z,28.40
2022-08-21T15:14:41.851Z,28.10
2022-08-21T15:17:13.130Z,28.00
2022-08-21T15:19:42.213Z,28.20
2022-08-21T15:22:18.627Z,28.60
2022-08-21T15:24:47.698Z,28.10
2022-08-21T15:27:17.464Z,28.40
2022-08-21T15:29:46.163Z,28.20
2022-08-21T15:32:27.196Z,28.30
2022-08-21T15:34:56.371Z,27.90
2022-08-21T15:37:26.647Z,27.90
2022-08-21T15:39:55.492Z,27.30
2022-08-21T15:42:24.618Z,28.00
2022-08-21T15:44:53.751Z,27.40
2022-08-21T15:47:34.490Z,27.80
2022-08-21T15:50:03.596Z,27.90
2022-08-21T15:52:31.976Z,28.10
2022-08-21T15:55:00.285Z,28.00
2022-08-21T15:57:29.256Z,28.20
2022-08-21T16:00:07.223Z,28.00
2022-08-21T16:02:36.990Z,28.10
2022-08-21T16:05:06.411Z,28.40
2022-08-21T16:07:34.864Z,28.10
2022-08-21T16:10:04.573Z,27.50
2022-08-21T16:12:39.315Z,27.50
2022-08-21T16:15:20.057Z,27.60
2022-08-21T16:17:53.108Z,27.80
2022-08-21T16:20:25.957Z,27.40
2022-08-21T16:22:56.002Z,27.40
2022-08-21T16:25:25.452Z,27.50
2022-08-21T16:27:59.566Z,27.30
2022-08-21T16:30:29.710Z,27.50
2022-08-21T16:33:00.827Z,27.90
2022-08-21T16:35:29.535Z,27.80
2022-08-21T16:37:57.979Z,27.40
2022-08-21T16:40:27.357Z,27.10
2022-08-21T16:42:56.341Z,26.80
2022-08-21T16:45:24.742Z,26.70
2022-08-21T16:47:53.138Z,26.90
2022-08-21T16:50:25.886Z,27.00
2022-08-21T16:52:54.553Z,26.70
2022-08-21T16:55:23.005Z,27.00
2022-08-21T16:57:51.501Z,26.80
2022-08-21T17:00:19.995Z,26.80
2022-08-21T17:02:53.476Z,27.10
2022-08-21T17:05:23.762Z,27.10
2022-08-21T17:07:52.263Z,27.50
2022-08-21T17:10:21.641Z,27.20
2022-08-21T17:12:57.883Z,27.00
2022-08-21T17:15:29.353Z,27.30
2022-08-21T17:17:57.917Z,27.00
2022-08-21T17:20:28.147Z,27.30
2022-08-21T17:22:56.576Z,27.00
2022-08-21T17:25:25.426Z,26.90
2022-08-21T17:27:54.567Z,27.40
2022-08-21T17:30:23.486Z,27.20
2022-08-21T17:32:56.002Z,27.30
2022-08-21T17:35:24.553Z,26.80
2022-08-21T17:37:54.711Z,26.90
2022-08-21T17:40:23.266Z,27.00
2022-08-21T17:42:51.859Z,26.50
2022-08-21T17:45:22.120Z,26.70
2022-08-21T17:47:50.567Z,27.00
2022-08-21T17:50:22.940Z,26.90
2022-08-21T17:52:52.951Z,26.20
2022-08-21T17:55:21.700Z,26.60
2022-08-21T17:57:52.371Z,27.10
2022-08-21T18:00:23.056Z,26.60
2022-08-21T18:03:02.788Z,26.50
2022-08-21T18:05:31.548Z,26.70
2022-08-21T18:08:01.282Z,26.90
2022-08-21T18:10:29.853Z,26.80
2022-08-21T18:12:58.972Z,26.60
2022-08-21T18:15:27.485Z,26.70
2022-08-21T18:17:56.145Z,26.20
2022-08-21T18:20:25.706Z,26.10
2022-08-21T18:22:54.135Z,26.90
2022-08-21T18:25:24.166Z,27.20
2022-08-21T18:27:53.011Z,27.10
2022-08-21T18:30:24.093Z,27.20
2022-08-21T18:32:55.388Z,26.60
2022-08-21T18:35:24.310Z,27.20
2022-08-21T18:37:52.719Z,27.20
2022-08-21T18:40:21.716Z,26.80
2022-08-21T18:42:55.669Z,26.90
2022-08-21T18:45:24.717Z,27.00
2022-08-21T18:47:56.135Z,27.00
2022-08-21T18:50:27.732Z,27.10
2022-08-21T18:52:57.285Z,27.30
2022-08-21T18:55:26.371Z,27.40
2022-08-21T18:57:58.638Z,27.50
2022-08-21T19:00:31.313Z,27.60
2022-08-21T19:03:00.457Z,27.60
2022-08-21T19:05:29.170Z,27.60
2022-08-21T19:07:58.268Z,27.20
2022-08-21T19:10:29.457Z,26.70
2022-08-21T19:13:01.507Z,26.70
2022-08-21T19:15:30.375Z,27.10
2022-08-21T19:18:00.334Z,27.00
2022-08-21T19:20:34.431Z,27.10
2022-08-21T19:23:06.433Z,26.80
2022-08-21T19:25:37.259Z,27.30
2022-08-21T19:28:13.645Z,27.10
2022-08-21T19:30:47.986Z,27.30
2022-08-21T19:33:24.114Z,27.40
2022-08-21T19:35:53.315Z,27.40
2022-08-21T19:38:22.057Z,27.30
2022-08-21T19:40:51.031Z,27.40
2022-08-21T19:43:23.154Z,27.50
2022-08-21T19:45:55.060Z,27.50
2022-08-21T19:48:24.183Z,27.30
2022-08-21T19:50:52.869Z,26.70
2022-08-21T19:53:21.811Z,26.20
2022-08-21T19:58:42.932Z,26.00
2022-08-21T20:01:16.504Z,24.80
2022-08-21T20:03:53.701Z,25.60
2022-08-21T20:06:23.886Z,25.10
2022-08-21T20:08:54.891Z,25.10
2022-08-21T20:11:31.365Z,25.20
2022-08-21T20:14:02.258Z,25.20
2022-08-21T20:16:30.821Z,25.30
2022-08-21T20:19:00.219Z,25.70
2022-08-21T20:21:28.757Z,25.30
2022-08-21T20:23:57.692Z,24.70
2022-08-21T20:26:26.750Z,24.60
2022-08-21T20:28:56.668Z,25.20
2022-08-21T20:31:27.847Z,25.00
2022-08-21T20:33:56.485Z,25.40
2022-08-21T20:36:25.271Z,25.60
2022-08-21T20:38:54.225Z,24.50
2022-08-21T20:41:30.405Z,25.30
2022-08-21T20:44:01.119Z,25.40
2022-08-21T20:46:33.293Z,25.70
2022-08-21T20:49:02.220Z,25.60
2022-08-21T20:51:39.397Z,26.20
2022-08-21T20:54:21.633Z,26.30
2022-08-21T20:56:55.599Z,26.20
2022-08-21T20:59:42.823Z,25.70
2022-08-21T21:02:28.932Z,25.80
2022-08-21T21:05:07.143Z,26.10
2022-08-21T21:07:42.319Z,25.80
2022-08-21T21:10:20.976Z,26.00
2022-08-21T21:12:57.239Z,25.10
2022-08-21T21:15:31.061Z,25.40
2022-08-21T21:18:13.165Z,25.30
2022-08-21T21:20:50.126Z,25.60
2022-08-21T21:23:28.488Z,25.90
2022-08-21T21:26:03.965Z,25.30
2022-08-21T21:28:46.855Z,25.20
2022-08-21T21:31:17.270Z,24.70
2022-08-21T21:33:49.628Z,24.30
2022-08-21T21:36:35.357Z,23.80
2022-08-21T21:39:22.923Z,24.30
2022-08-21T21:41:59.763Z,24.30
2022-08-21T21:44:48.717Z,24.10
2022-08-21T21:47:27.404Z,24.70
2022-08-21T21:50:18.644Z,24.60
2022-08-21T21:53:03.843Z,25.10
2022-08-21T21:56:02.103Z,25.20
2022-08-21T21:59:10.152Z,24.90
2022-08-21T22:01:47.596Z,24.70
2022-08-21T22:04:28.428Z,24.80
2022-08-21T22:07:08.212Z,24.90
2022-08-21T22:09:45.083Z,25.20
2022-08-21T22:12:32.815Z,25.60
2022-08-21T22:15:01.629Z,25.70
2022-08-21T22:17:44.672Z,25.10
2022-08-21T22:20:18.831Z,23.90
2022-08-21T22:22:49.439Z,24.30
2022-08-21T22:25:28.028Z,25.10
2022-08-21T22:28:09.863Z,25.40
2022-08-21T22:30:45.355Z,25.70
2022-08-21T22:33:20.066Z,25.60
2022-08-21T22:35:51.903Z,25.40
2022-08-21T22:38:36.951Z,25.70
2022-08-21T22:41:17.322Z,25.50
2022-08-21T22:43:56.034Z,25.40
2022-08-21T22:46:32.030Z,25.50
2022-08-21T22:49:08.139Z,25.40
2022-08-21T22:51:42.245Z,25.60
2022-08-21T22:54:22.931Z,25.90
2022-08-21T22:57:02.041Z,26.00
2022-08-21T22:59:34.839Z,26.20
2022-08-21T23:02:11.405Z,26.20
2022-08-21T23:04:48.957Z,26.20
2022-08-21T23:07:43.456Z,26.30
2022-08-21T23:10:29.717Z,26.20
2022-08-21T23:13:09.252Z,26.20
2022-08-21T23:15:46.948Z,26.30
2022-08-21T23:18:29.245Z,26.30
2022-08-21T23:21:14.029Z,26.30
2022-08-21T23:23:55.816Z,26.40
2022-08-21T23:26:33.525Z,26.20
2022-08-21T23:29:24.826Z,26.20
2022-08-21T23:32:35.323Z,26.10
2022-08-21T23:35:22.156Z,26.10
2022-08-21T23:37:59.047Z,26.10
2022-08-21T23:40:52.204Z,26.10
2022-08-21T23:43:41.994Z,26.10
2022-08-21T23:46:37.447Z,26.10
2022-08-21T23:49:17.680Z,26.10
2022-08-21T23:51:58.942Z,26.00
2022-08-21T23:54:35.599Z,25.90
2022-08-21T23:57:15.040Z,25.90
